Turkmenbashi, Turkmenistan

6:51 AM TMT on May 06, 2015 (GMT +0500)
Turkmenbashi | | Change Station
CLOSE
Current Station
Airport
Location: Turkmenbashi,
Elevation: 269 ft
Nearby Weather Stations

Elev 269 ft 40.05 °N, 53.01 °E | Updated 51 minutes ago

Overcast
Overcast
54 °F
Feels Like 54 °F
N
13
Wind Variable Wind from North

Today
High -- | Low -- °F
--% Chance of Precip.
Yesterday
High -- | Low -- °F
Precip. -- in
6:22 AM 8:27 PM
Waning Gibbous, 96% visible
Pressure 29.89 in
Visibility 1.9 miles
Clouds Overcast 200 ft
Dew Point 54 °F
Humidity 100%
Rainfall 0.00 in
Snow Depth Not available.
UV 0 out of 12
Pollen Not available.
Air Quality Not available.
Flu Activity Not available.
METAR UTAK 060100Z 36006MPS 3000 BR OVC002 12/12 Q1012 TEMPO 1500 BR OVC002

More Conditions Fewer Conditions

Pressure 29.89 in
Visibility 1.9 miles
Clouds Overcast 200 ft
Dew Point 54 °F
Humidity 100%
Rainfall 0.00 in
Snow Depth Not available.
UV 0 out of 12
Pollen Not available.
Air Quality Not available.
Flu Activity Not available.
METAR UTAK 060100Z 36006MPS 3000 BR OVC002 12/12 Q1012 TEMPO 1500 BR OVC002

More Conditions Fewer Conditions

10-Day Weather Forecast

Almanac

Astronomy

May. 06, 2015 Rise Set
Actual Time
Civil Twilight
Nautical Twilight
Astronomical Twilight
Moon
Length of Visible Light
Length of Day
Tomorrow will be .
, % of the Moon is Illuminated

Today's Extremes

Country Highs Country Lows

Community

WunderPhotos

Upload Photos

1,819,036 photos uploaded!

WunderBlogs® & News

Nearby

Air Quality

  Air Quality AQ Index Pollutant
Not available.

Snow Depth

Station Depth Elevation

Earthquake Activity

City Distance Mag. Time & Date
Minimum magnitude displayed is 2.5.

Coastal Water Temperatures

Place Temperature

Stations

Nearby Weather Stations

Station Location Temp. Windchill Dew Point Humidity Wind Precip. Elev Updated Type